createdAt,value
2017-10-07T00:00:09.160Z,994.72
2017-10-07T00:01:09.311Z,994.61
2017-10-07T00:02:08.590Z,994.76
2017-10-07T00:03:09.427Z,994.83
2017-10-07T00:04:08.601Z,994.84
2017-10-07T00:05:09.636Z,994.73
2017-10-07T00:06:08.007Z,994.78
2017-10-07T00:07:09.533Z,994.77
2017-10-07T00:08:07.963Z,994.81
2017-10-07T00:09:09.756Z,994.74
2017-10-07T00:10:08.008Z,994.86
2017-10-07T00:11:09.575Z,994.80
2017-10-07T00:12:09.339Z,994.76
2017-10-07T00:13:09.783Z,994.83
2017-10-07T00:14:09.272Z,994.83
2017-10-07T00:15:09.695Z,994.82
2017-10-07T00:16:08.767Z,994.86
2017-10-07T00:17:09.733Z,994.86
2017-10-07T00:18:08.602Z,994.87
2017-10-07T00:19:09.732Z,994.85
2017-10-07T00:20:08.806Z,994.80
2017-10-07T00:21:09.637Z,994.87
2017-10-07T00:22:08.050Z,994.79
2017-10-07T00:23:09.744Z,994.82
2017-10-07T00:24:08.043Z,994.83
2017-10-07T00:25:09.658Z,994.80
2017-10-07T00:26:08.070Z,994.89
2017-10-07T00:27:08.209Z,994.77
2017-10-07T00:28:08.025Z,994.84
2017-10-07T00:29:09.700Z,994.83
2017-10-07T00:30:09.813Z,994.87
2017-10-07T00:31:09.963Z,994.80
2017-10-07T00:32:09.404Z,994.87
2017-10-07T00:33:09.717Z,994.84
2017-10-07T00:34:09.332Z,994.84
2017-10-07T00:35:09.806Z,994.75
2017-10-07T00:36:09.000Z,994.87
2017-10-07T00:37:09.834Z,994.80
2017-10-07T00:38:08.075Z,994.80
2017-10-07T00:39:09.997Z,994.85
2017-10-07T00:40:08.135Z,994.87
2017-10-07T00:41:09.772Z,994.81
2017-10-07T00:42:08.094Z,994.92
2017-10-07T00:43:08.318Z,994.85
2017-10-07T00:44:08.142Z,994.84
2017-10-07T00:45:09.684Z,994.84
2017-10-07T00:46:09.325Z,994.88
2017-10-07T00:47:09.973Z,994.86
2017-10-07T00:48:09.301Z,994.85
2017-10-07T00:49:09.725Z,994.79
2017-10-07T00:50:09.292Z,994.75
2017-10-07T00:51:09.629Z,994.87
2017-10-07T00:52:09.079Z,994.90
2017-10-07T00:53:09.630Z,994.93
2017-10-07T00:54:08.806Z,994.84
2017-10-07T00:55:09.766Z,994.82
2017-10-07T00:56:08.075Z,994.85
2017-10-07T00:57:09.882Z,994.86
2017-10-07T00:58:08.145Z,994.90
2017-10-07T00:59:09.796Z,994.83
2017-10-07T01:03:13.117Z,994.90
2017-10-07T01:03:14.231Z,994.81
2017-10-07T01:03:14.929Z,994.86
2017-10-07T01:03:16.152Z,994.84
2017-10-07T01:05:50.469Z,994.83
2017-10-07T01:05:51.381Z,994.90
2017-10-07T01:08:31.511Z,994.89
2017-10-07T01:08:32.416Z,994.86
2017-10-07T01:08:33.235Z,994.91
2017-10-07T01:09:09.074Z,994.86
2017-10-07T01:11:48.266Z,994.94
2017-10-07T01:11:49.186Z,994.97
2017-10-07T01:14:34.053Z,994.90
2017-10-07T01:14:34.964Z,994.90
2017-10-07T01:14:35.782Z,994.83
2017-10-07T01:15:08.781Z,994.93
2017-10-07T01:17:45.953Z,994.93
2017-10-07T01:17:46.765Z,994.92
2017-10-07T01:20:31.008Z,995.00
2017-10-07T01:20:32.029Z,994.96
2017-10-07T01:20:33.048Z,994.92
2017-10-07T01:21:09.064Z,994.87
2017-10-07T01:23:48.096Z,994.94
2017-10-07T01:23:48.722Z,994.81
2017-10-07T01:26:31.424Z,994.83
2017-10-07T01:26:32.337Z,994.91
2017-10-07T01:26:33.254Z,994.88
2017-10-07T01:27:09.699Z,994.82
2017-10-07T01:29:48.672Z,994.90
2017-10-07T01:29:49.489Z,994.85
2017-10-07T01:32:34.265Z,994.92
2017-10-07T01:32:35.283Z,994.81
2017-10-07T01:32:36.292Z,994.89
2017-10-07T01:35:42.054Z,994.87
2017-10-07T01:35:42.866Z,994.90
2017-10-07T01:35:43.680Z,994.90
2017-10-07T01:39:09.170Z,994.91
2017-10-07T01:39:10.378Z,994.94
2017-10-07T01:39:11.189Z,994.94
2017-10-07T01:39:12.398Z,994.90
2017-10-07T01:41:45.199Z,994.90
2017-10-07T01:41:46.105Z,994.98
2017-10-07T01:44:32.609Z,994.88
2017-10-07T01:44:33.423Z,994.94
2017-10-07T01:44:34.243Z,994.91
2017-10-07T01:45:09.014Z,994.88
2017-10-07T01:47:47.950Z,994.91
2017-10-07T01:47:48.756Z,994.93
2017-10-07T01:51:09.540Z,994.95
2017-10-07T01:51:10.549Z,994.91
2017-10-07T01:51:11.565Z,994.92
2017-10-07T01:51:12.577Z,994.85
2017-10-07T01:53:47.984Z,994.96
2017-10-07T01:53:48.802Z,994.97
2017-10-07T01:57:09.486Z,994.96
2017-10-07T01:57:10.618Z,994.99
2017-10-07T01:57:11.521Z,994.99
2017-10-07T01:57:12.749Z,995.02
2017-10-07T01:59:48.760Z,994.93
2017-10-07T01:59:49.467Z,994.98
2017-10-07T02:00:08.301Z,994.97
2017-10-07T02:01:09.931Z,994.91
2017-10-07T02:02:09.092Z,994.96
2017-10-07T02:03:09.888Z,994.95
2017-10-07T02:04:08.402Z,994.92
2017-10-07T02:05:09.938Z,994.96
2017-10-07T02:06:08.341Z,994.90
2017-10-07T02:07:10.072Z,994.89
2017-10-07T02:08:09.609Z,994.97
2017-10-07T02:09:09.859Z,994.99
2017-10-07T02:10:09.627Z,994.93
2017-10-07T02:11:09.881Z,994.97
2017-10-07T02:12:09.650Z,994.95
2017-10-07T02:13:09.907Z,994.98
2017-10-07T02:14:08.961Z,995.02
2017-10-07T02:15:10.222Z,994.93
2017-10-07T02:16:08.954Z,995.06
2017-10-07T02:17:10.095Z,995.00
2017-10-07T02:18:08.407Z,994.94
2017-10-07T02:19:09.935Z,995.02
2017-10-07T02:20:08.501Z,995.06
2017-10-07T02:21:09.871Z,995.12
2017-10-07T02:22:08.397Z,995.05
2017-10-07T02:23:09.967Z,995.09
2017-10-07T02:24:09.598Z,995.08
2017-10-07T02:25:09.916Z,995.06
2017-10-07T02:26:09.653Z,995.10
2017-10-07T02:27:09.979Z,995.07
2017-10-07T02:28:09.617Z,995.09
2017-10-07T02:29:10.056Z,995.04
2017-10-07T02:30:18.968Z,995.09
2017-10-07T02:31:10.072Z,995.01
2017-10-07T02:32:09.112Z,995.09
2017-10-07T02:33:10.171Z,995.12
2017-10-07T02:34:08.503Z,995.06
2017-10-07T02:35:10.125Z,995.05
2017-10-07T02:36:08.470Z,995.01
2017-10-07T02:37:10.017Z,994.95
2017-10-07T02:38:08.489Z,994.97
2017-10-07T02:39:09.973Z,994.88
2017-10-07T02:40:08.558Z,994.87
2017-10-07T02:41:10.137Z,994.90
2017-10-07T02:42:08.561Z,994.94
2017-10-07T02:43:09.904Z,994.83
2017-10-07T02:44:10.173Z,994.91
2017-10-07T02:45:14.639Z,994.87
2017-10-07T02:46:08.483Z,994.79
2017-10-07T02:47:10.049Z,994.90
2017-10-07T02:48:09.111Z,994.88
2017-10-07T02:49:09.962Z,994.85
2017-10-07T02:50:08.487Z,994.81
2017-10-07T02:51:10.247Z,994.88
2017-10-07T02:52:08.481Z,994.79
2017-10-07T02:53:09.858Z,994.80
2017-10-07T02:54:08.507Z,994.81
2017-10-07T02:55:10.130Z,994.78
2017-10-07T02:56:08.571Z,994.83
2017-10-07T02:57:08.908Z,994.74
2017-10-07T02:58:08.545Z,994.81
2017-10-07T02:59:11.103Z,994.82
2017-10-07T03:00:08.573Z,994.80
2017-10-07T03:01:10.250Z,994.84
2017-10-07T03:02:09.789Z,994.79
2017-10-07T03:03:09.989Z,994.79
2017-10-07T03:04:09.126Z,994.84
2017-10-07T03:05:10.087Z,994.87
2017-10-07T03:06:09.244Z,994.78
2017-10-07T03:07:10.203Z,994.88
2017-10-07T03:08:08.543Z,994.81
2017-10-07T03:09:10.128Z,994.87
2017-10-07T03:10:08.616Z,994.78
2017-10-07T03:11:10.172Z,994.81
2017-10-07T03:12:08.593Z,994.75
2017-10-07T03:13:10.679Z,994.86
2017-10-07T03:14:08.710Z,994.80
2017-10-07T03:15:10.878Z,994.90
2017-10-07T03:16:08.673Z,994.89
2017-10-07T03:17:09.904Z,994.80
2017-10-07T03:18:09.859Z,994.76
2017-10-07T03:19:10.097Z,994.84
2017-10-07T03:20:09.871Z,994.81
2017-10-07T03:21:10.136Z,994.83
2017-10-07T03:22:09.872Z,994.82
2017-10-07T03:23:10.300Z,994.79
2017-10-07T03:24:08.659Z,994.86
2017-10-07T03:25:10.180Z,994.85
2017-10-07T03:26:08.673Z,994.79
2017-10-07T03:27:10.130Z,994.80
2017-10-07T03:28:08.652Z,994.83
2017-10-07T03:29:10.207Z,994.75
2017-10-07T03:30:08.790Z,994.86
2017-10-07T03:31:10.156Z,994.80
2017-10-07T03:32:08.700Z,994.82
2017-10-07T03:33:10.155Z,994.86
2017-10-07T03:34:09.907Z,994.83
2017-10-07T03:35:10.057Z,994.79
2017-10-07T03:36:10.001Z,994.83
2017-10-07T03:37:10.046Z,994.86
2017-10-07T03:38:09.225Z,994.86
2017-10-07T03:39:10.200Z,994.93
2017-10-07T03:40:08.649Z,994.91
2017-10-07T03:41:10.477Z,994.88
2017-10-07T03:42:08.807Z,994.90
2017-10-07T03:43:10.167Z,994.85
2017-10-07T03:44:08.679Z,994.90
2017-10-07T03:45:10.121Z,994.88
2017-10-07T03:46:08.654Z,994.81
2017-10-07T03:47:10.802Z,994.86
2017-10-07T03:48:08.641Z,994.88
2017-10-07T03:49:01.785Z,994.88
2017-10-07T03:50:41.031Z,994.83
2017-10-07T03:50:41.944Z,994.95
2017-10-07T03:51:09.456Z,994.87
2017-10-07T03:52:09.873Z,994.85
2017-10-07T03:53:10.315Z,994.89
2017-10-07T03:54:09.377Z,994.85
2017-10-07T03:55:10.215Z,994.84
2017-10-07T03:56:09.457Z,994.82
2017-10-07T03:57:10.221Z,994.81
2017-10-07T03:58:08.757Z,994.88
2017-10-07T03:59:10.254Z,994.90
2017-10-07T04:00:08.605Z,994.92
2017-10-07T04:01:10.065Z,994.86
2017-10-07T04:02:08.682Z,994.95
2017-10-07T04:03:10.037Z,994.94
2017-10-07T04:04:09.987Z,994.98
2017-10-07T04:05:10.049Z,994.92
2017-10-07T04:06:10.009Z,994.93
2017-10-07T04:07:10.086Z,994.97
2017-10-07T04:08:09.961Z,994.89
2017-10-07T04:09:10.303Z,994.98
2017-10-07T04:10:09.348Z,994.99
2017-10-07T04:11:10.219Z,994.97
2017-10-07T04:12:10.271Z,994.95
2017-10-07T04:13:10.207Z,995.03
2017-10-07T04:14:08.750Z,995.00
2017-10-07T04:15:10.107Z,994.98
2017-10-07T04:16:08.851Z,994.94
2017-10-07T04:17:10.096Z,995.00
2017-10-07T04:18:08.833Z,995.01
2017-10-07T04:19:08.962Z,994.98
2017-10-07T04:20:08.794Z,995.06
2017-10-07T04:21:10.165Z,995.11
2017-10-07T04:22:10.100Z,995.13
2017-10-07T04:23:10.228Z,995.04
2017-10-07T04:24:10.083Z,995.06
2017-10-07T04:25:10.233Z,995.09
2017-10-07T04:26:10.119Z,995.11
2017-10-07T04:27:10.259Z,995.08
2017-10-07T04:28:09.511Z,995.11
2017-10-07T04:29:10.252Z,995.09
2017-10-07T04:30:09.503Z,995.09
2017-10-07T04:31:10.358Z,995.05
2017-10-07T04:32:08.685Z,995.16
2017-10-07T04:33:10.392Z,995.09
2017-10-07T04:34:08.720Z,995.12
2017-10-07T04:35:10.127Z,995.14
2017-10-07T04:36:08.954Z,995.13
2017-10-07T04:37:10.296Z,995.13
2017-10-07T04:38:08.838Z,995.16
2017-10-07T04:39:10.170Z,995.20
2017-10-07T04:40:10.070Z,995.20
2017-10-07T04:41:10.406Z,995.15
2017-10-07T04:42:10.073Z,995.15
2017-10-07T04:43:10.305Z,995.23
2017-10-07T04:44:10.165Z,995.16
2017-10-07T04:45:10.123Z,995.20
2017-10-07T04:46:09.481Z,995.25
2017-10-07T04:47:10.236Z,995.30
2017-10-07T04:48:08.907Z,995.21
2017-10-07T04:49:10.300Z,995.15
2017-10-07T04:50:08.874Z,995.24
2017-10-07T04:51:10.518Z,995.23
2017-10-07T04:52:08.891Z,995.17
2017-10-07T04:53:11.047Z,995.24
2017-10-07T04:54:08.906Z,995.18
2017-10-07T04:55:10.179Z,995.32
2017-10-07T04:56:10.118Z,995.30
2017-10-07T04:57:10.080Z,995.33
2017-10-07T04:58:10.144Z,995.37
2017-10-07T04:59:10.311Z,995.27
2017-10-07T05:00:10.197Z,995.29
2017-10-07T05:01:10.228Z,995.29
2017-10-07T05:02:09.571Z,995.32
2017-10-07T05:03:10.326Z,995.28
2017-10-07T05:04:09.581Z,995.28
2017-10-07T05:05:10.210Z,995.30
2017-10-07T05:06:08.991Z,995.33
2017-10-07T05:07:10.131Z,995.31
2017-10-07T05:08:08.972Z,995.30
2017-10-07T05:09:10.325Z,995.24
2017-10-07T05:10:08.995Z,995.30
2017-10-07T05:11:11.057Z,995.30
2017-10-07T05:12:09.030Z,995.32
2017-10-07T05:13:10.084Z,995.27
2017-10-07T05:14:10.162Z,995.29
2017-10-07T05:15:10.326Z,995.32
2017-10-07T05:16:10.237Z,995.34
2017-10-07T05:17:10.235Z,995.32
2017-10-07T05:18:09.574Z,995.33
2017-10-07T05:19:10.267Z,995.36
2017-10-07T05:20:09.630Z,995.40
2017-10-07T05:21:10.334Z,995.31
2017-10-07T05:22:09.049Z,995.27
2017-10-07T05:23:10.422Z,995.25
2017-10-07T05:24:08.968Z,995.30
2017-10-07T05:25:10.283Z,995.23
2017-10-07T05:26:09.208Z,995.24
2017-10-07T05:27:10.315Z,995.21
2017-10-07T05:28:08.994Z,995.39
2017-10-07T05:29:10.362Z,995.26
2017-10-07T05:30:10.325Z,995.27
2017-10-07T05:31:10.373Z,995.33
2017-10-07T05:32:10.220Z,995.32
2017-10-07T05:33:10.236Z,995.28
2017-10-07T05:34:10.284Z,995.32
2017-10-07T05:35:10.634Z,995.41
2017-10-07T05:36:09.765Z,995.35
2017-10-07T05:37:10.418Z,995.27
2017-10-07T05:38:09.693Z,995.32
2017-10-07T05:39:10.376Z,995.32
2017-10-07T05:40:09.106Z,995.31
2017-10-07T05:41:10.281Z,995.35
2017-10-07T05:42:09.151Z,995.33
2017-10-07T05:43:10.309Z,995.26
2017-10-07T05:44:09.190Z,995.25
2017-10-07T05:45:09.504Z,995.30
2017-10-07T05:46:09.093Z,995.26
2017-10-07T05:47:10.200Z,995.23
2017-10-07T05:48:10.294Z,995.29
2017-10-07T05:49:10.425Z,995.23
2017-10-07T05:50:10.305Z,995.26
2017-10-07T05:51:10.195Z,995.27
2017-10-07T05:52:09.678Z,995.30
2017-10-07T05:53:10.350Z,995.33
2017-10-07T05:54:09.719Z,995.24
2017-10-07T05:55:10.179Z,995.26
2017-10-07T05:56:09.201Z,995.28
2017-10-07T05:57:10.466Z,995.30
2017-10-07T05:58:09.090Z,995.24
2017-10-07T05:59:10.339Z,995.27
2017-10-07T06:00:09.095Z,995.26
2017-10-07T06:01:10.940Z,995.25
2017-10-07T06:02:09.182Z,995.24
2017-10-07T06:03:10.398Z,995.20
2017-10-07T06:04:10.371Z,995.29
2017-10-07T06:05:10.505Z,995.26
2017-10-07T06:06:10.846Z,995.25
2017-10-07T06:07:10.515Z,995.21
2017-10-07T06:08:09.759Z,995.29
2017-10-07T06:09:10.491Z,995.23
2017-10-07T06:10:09.819Z,995.29
2017-10-07T06:11:10.979Z,995.26
2017-10-07T06:12:09.203Z,995.22
2017-10-07T06:13:10.350Z,995.20
2017-10-07T06:14:09.177Z,995.26
2017-10-07T06:15:10.206Z,995.22
2017-10-07T06:16:09.269Z,995.24
2017-10-07T06:17:10.408Z,995.22
2017-10-07T06:18:09.155Z,995.22
2017-10-07T06:19:10.500Z,995.22
2017-10-07T06:20:10.378Z,995.24
2017-10-07T06:21:10.419Z,995.26
2017-10-07T06:22:10.489Z,995.25
2017-10-07T06:23:10.333Z,995.24
2017-10-07T06:24:09.795Z,995.30
2017-10-07T06:25:10.250Z,995.27
2017-10-07T06:26:09.899Z,995.30
2017-10-07T06:27:10.440Z,995.18
2017-10-07T06:28:09.883Z,995.24
2017-10-07T06:29:10.940Z,995.21
2017-10-07T06:30:09.211Z,995.15
2017-10-07T06:31:10.504Z,995.21
2017-10-07T06:32:09.246Z,995.14
2017-10-07T06:33:09.526Z,995.13
2017-10-07T06:34:09.264Z,995.15
2017-10-07T06:35:10.513Z,995.18
2017-10-07T06:36:10.475Z,995.22
2017-10-07T06:37:10.495Z,995.16
2017-10-07T06:38:10.540Z,995.12
2017-10-07T06:39:10.261Z,995.07
2017-10-07T06:40:10.503Z,995.12
2017-10-07T06:41:10.545Z,995.16
2017-10-07T06:42:09.890Z,995.19
2017-10-07T06:43:10.566Z,995.16
2017-10-07T06:44:09.896Z,995.16
2017-10-07T06:45:10.339Z,995.14
2017-10-07T06:46:09.274Z,995.16
2017-10-07T06:47:10.326Z,995.10
2017-10-07T06:48:09.273Z,995.09
2017-10-07T06:49:10.332Z,995.08
2017-10-07T06:50:09.285Z,995.14
2017-10-07T06:51:11.127Z,995.11
2017-10-07T06:52:09.371Z,995.18
2017-10-07T06:53:10.517Z,995.10
2017-10-07T06:54:10.580Z,995.17
2017-10-07T06:55:10.453Z,995.12
2017-10-07T06:56:10.527Z,995.16
2017-10-07T06:57:10.559Z,995.14
2017-10-07T06:58:09.903Z,995.16
2017-10-07T06:59:10.453Z,995.17
2017-10-07T07:00:09.283Z,995.19
2017-10-07T07:01:10.455Z,995.23
2017-10-07T07:02:09.373Z,995.21
2017-10-07T07:03:10.418Z,995.19
2017-10-07T07:04:09.363Z,995.18
2017-10-07T07:05:10.503Z,995.18
2017-10-07T07:06:09.433Z,995.29
2017-10-07T07:07:10.678Z,995.26
2017-10-07T07:08:09.399Z,995.26
2017-10-07T07:09:10.645Z,995.24
2017-10-07T07:10:10.581Z,995.15
2017-10-07T07:11:10.523Z,995.20
2017-10-07T07:12:10.560Z,995.23
2017-10-07T07:13:10.798Z,995.23
2017-10-07T07:14:09.946Z,995.23
2017-10-07T07:15:10.594Z,995.21
2017-10-07T07:16:09.942Z,995.22
2017-10-07T07:17:10.596Z,995.25
2017-10-07T07:18:10.035Z,995.17
2017-10-07T07:19:10.607Z,995.17
2017-10-07T07:20:09.383Z,995.17
2017-10-07T07:21:10.552Z,995.18
2017-10-07T07:22:09.378Z,995.22
2017-10-07T07:23:10.556Z,995.22
2017-10-07T07:24:09.495Z,995.20
2017-10-07T07:25:10.650Z,995.16
2017-10-07T07:26:10.593Z,995.09
2017-10-07T07:27:10.541Z,995.18
2017-10-07T07:28:10.622Z,995.16
2017-10-07T07:29:10.580Z,995.07
2017-10-07T07:30:10.644Z,995.15
2017-10-07T07:31:10.485Z,995.07
2017-10-07T07:32:10.021Z,995.20
2017-10-07T07:33:10.463Z,995.23
2017-10-07T07:34:10.090Z,995.15
2017-10-07T07:35:10.458Z,995.17
2017-10-07T07:36:09.486Z,995.13
2017-10-07T07:37:10.632Z,995.19
2017-10-07T07:38:09.564Z,995.24
2017-10-07T07:39:10.415Z,995.18
2017-10-07T07:40:09.447Z,995.17
2017-10-07T07:41:10.578Z,995.22
2017-10-07T07:42:10.729Z,995.19
2017-10-07T07:43:10.673Z,995.33
2017-10-07T07:44:10.831Z,995.29
2017-10-07T07:45:10.575Z,995.28
2017-10-07T07:46:10.694Z,995.27
2017-10-07T07:47:10.958Z,995.29
2017-10-07T07:48:10.083Z,995.34
2017-10-07T07:49:10.444Z,995.33
2017-10-07T07:50:10.087Z,995.37
2017-10-07T07:51:10.541Z,995.31
2017-10-07T07:52:09.472Z,995.35
2017-10-07T07:53:10.535Z,995.33
2017-10-07T07:54:09.461Z,995.36
2017-10-07T07:55:10.529Z,995.34
2017-10-07T07:56:09.584Z,995.35
2017-10-07T07:57:10.530Z,995.30
2017-10-07T07:58:09.575Z,995.28
2017-10-07T07:59:10.411Z,995.29
2017-10-07T08:00:10.772Z,995.27
2017-10-07T08:01:10.523Z,995.23
2017-10-07T08:02:10.736Z,995.32
2017-10-07T08:03:10.583Z,995.30
2017-10-07T08:04:10.127Z,995.28
2017-10-07T08:05:11.186Z,995.32
2017-10-07T08:06:10.855Z,995.31
2017-10-07T08:07:10.588Z,995.31
2017-10-07T08:08:09.530Z,995.32
2017-10-07T08:09:10.520Z,995.31
2017-10-07T08:10:09.569Z,995.22
2017-10-07T08:11:10.527Z,995.26
2017-10-07T08:12:09.575Z,995.27
2017-10-07T08:13:11.305Z,995.20
2017-10-07T08:14:09.537Z,995.34
2017-10-07T08:15:10.595Z,995.23
2017-10-07T08:16:10.355Z,995.24
2017-10-07T08:17:10.735Z,995.33
2017-10-07T08:18:10.805Z,995.38
2017-10-07T08:19:10.778Z,995.31
2017-10-07T08:20:10.782Z,995.34
2017-10-07T08:21:11.173Z,995.37
2017-10-07T08:22:10.215Z,995.37
2017-10-07T08:23:10.587Z,995.29
2017-10-07T08:24:10.262Z,995.37
2017-10-07T08:25:10.457Z,995.29
2017-10-07T08:26:09.677Z,995.36
2017-10-07T08:27:10.829Z,995.30
2017-10-07T08:28:09.655Z,995.33
2017-10-07T08:29:09.811Z,995.30
2017-10-07T08:30:09.605Z,995.33
2017-10-07T08:31:10.623Z,995.29
2017-10-07T08:32:10.287Z,995.33
2017-10-07T08:33:10.669Z,995.23
2017-10-07T08:34:10.918Z,995.32
2017-10-07T08:35:10.583Z,995.28
2017-10-07T08:36:10.936Z,995.32
2017-10-07T08:37:10.715Z,995.23
2017-10-07T08:38:10.906Z,995.18
2017-10-07T08:39:11.078Z,995.27
2017-10-07T08:40:11.099Z,995.20
2017-10-07T08:41:11.177Z,995.17
2017-10-07T08:42:10.316Z,995.24
2017-10-07T08:43:11.386Z,995.11
2017-10-07T08:44:09.712Z,995.19
2017-10-07T08:45:11.320Z,995.19
2017-10-07T08:46:09.761Z,995.17
2017-10-07T08:47:09.934Z,995.11
2017-10-07T08:48:09.848Z,995.13
2017-10-07T08:49:09.855Z,995.17
2017-10-07T08:50:09.728Z,995.17
2017-10-07T08:51:10.702Z,995.22
2017-10-07T08:52:10.961Z,995.16
2017-10-07T08:53:10.614Z,995.12
2017-10-07T08:54:10.897Z,995.17
2017-10-07T08:55:11.271Z,995.08
2017-10-07T08:56:10.353Z,995.12
2017-10-07T08:57:11.508Z,995.11
2017-10-07T08:58:10.457Z,995.07
2017-10-07T08:59:10.614Z,995.05
2017-10-07T09:00:09.727Z,995.08
2017-10-07T09:01:10.893Z,995.07
2017-10-07T09:02:09.703Z,994.99
2017-10-07T09:03:10.675Z,995.08
2017-10-07T09:04:09.745Z,994.99
2017-10-07T09:05:10.727Z,994.97
2017-10-07T09:06:10.994Z,994.94
2017-10-07T09:07:10.834Z,994.94
2017-10-07T09:08:10.993Z,995.03
2017-10-07T09:09:10.737Z,994.97
2017-10-07T09:10:10.973Z,994.93
2017-10-07T09:11:10.771Z,994.91
2017-10-07T09:12:11.053Z,994.88
2017-10-07T09:13:10.513Z,994.89
2017-10-07T09:14:10.383Z,994.88
2017-10-07T09:15:10.655Z,994.86
2017-10-07T09:16:09.782Z,994.85
2017-10-07T09:17:10.667Z,994.91
2017-10-07T09:18:09.806Z,994.67
2017-10-07T09:19:10.719Z,994.79
2017-10-07T09:20:09.851Z,994.82
2017-10-07T09:21:10.061Z,994.77
2017-10-07T09:22:09.879Z,994.80
2017-10-07T09:23:10.098Z,994.74
2017-10-07T09:24:09.832Z,994.72
2017-10-07T09:25:10.850Z,994.84
2017-10-07T09:26:11.038Z,994.66
2017-10-07T09:27:10.831Z,994.63
2017-10-07T09:28:11.095Z,994.70
2017-10-07T09:29:10.875Z,994.66
2017-10-07T09:30:10.717Z,994.63
2017-10-07T09:31:10.894Z,994.62
2017-10-07T09:32:10.458Z,994.55
2017-10-07T09:33:11.308Z,994.57
2017-10-07T09:34:09.879Z,994.56
2017-10-07T09:35:11.795Z,994.57
2017-10-07T09:36:09.873Z,994.50
2017-10-07T09:37:10.907Z,994.59
2017-10-07T09:38:09.876Z,994.54
2017-10-07T09:39:10.088Z,994.60
2017-10-07T09:40:09.895Z,994.50
2017-10-07T09:41:10.702Z,994.47
2017-10-07T09:42:11.571Z,994.57
2017-10-07T09:43:10.707Z,994.57
2017-10-07T09:44:11.546Z,994.62
2017-10-07T09:45:11.438Z,994.50
2017-10-07T09:46:10.657Z,994.48
2017-10-07T09:47:11.317Z,994.52
2017-10-07T09:48:10.474Z,994.48
2017-10-07T09:49:11.427Z,994.44
2017-10-07T09:50:09.864Z,994.43
2017-10-07T09:51:10.943Z,994.42
2017-10-07T09:52:09.953Z,994.47
2017-10-07T09:53:10.038Z,994.51
2017-10-07T09:54:10.027Z,994.41
2017-10-07T09:55:09.995Z,994.44
2017-10-07T09:56:09.928Z,994.38
2017-10-07T09:57:10.812Z,994.45
2017-10-07T09:58:10.687Z,994.31
2017-10-07T09:59:10.944Z,994.36
2017-10-07T10:00:11.170Z,994.32
2017-10-07T10:01:10.914Z,994.31
2017-10-07T10:02:11.110Z,994.31
2017-10-07T10:03:11.363Z,994.24
2017-10-07T10:04:11.308Z,994.24
2017-10-07T10:05:11.076Z,994.22
2017-10-07T10:06:10.667Z,994.25
2017-10-07T10:07:10.787Z,994.16
2017-10-07T10:08:10.768Z,994.19
2017-10-07T10:09:10.766Z,994.15
2017-10-07T10:10:10.110Z,994.14
2017-10-07T10:11:10.190Z,994.13
2017-10-07T10:12:10.080Z,994.09
2017-10-07T10:13:10.323Z,994.05
2017-10-07T10:14:10.121Z,994.07
2017-10-07T10:15:10.292Z,994.04
2017-10-07T10:16:10.100Z,993.98
2017-10-07T10:17:11.376Z,994.04
2017-10-07T10:18:11.293Z,993.96
2017-10-07T10:19:11.300Z,993.88
2017-10-07T10:20:10.593Z,993.95
2017-10-07T10:21:10.971Z,993.97
2017-10-07T10:22:10.800Z,994.03
2017-10-07T10:23:10.699Z,993.98
2017-10-07T10:24:10.674Z,993.99
2017-10-07T10:25:10.733Z,993.98
2017-10-07T10:26:10.084Z,994.02
2017-10-07T10:27:10.140Z,993.86
2017-10-07T10:28:10.052Z,993.91
2017-10-07T10:29:10.084Z,993.88
2017-10-07T10:30:10.009Z,993.87
2017-10-07T10:31:10.769Z,993.90
2017-10-07T10:32:11.206Z,993.89
2017-10-07T10:33:11.364Z,993.83
2017-10-07T10:34:11.270Z,993.83
2017-10-07T10:35:11.398Z,993.88
2017-10-07T10:36:11.272Z,993.84
2017-10-07T10:37:11.447Z,993.73
2017-10-07T10:38:10.704Z,993.73
2017-10-07T10:39:10.825Z,993.89
2017-10-07T10:40:10.679Z,993.88
2017-10-07T10:41:10.774Z,993.90
2017-10-07T10:42:10.114Z,993.83
2017-10-07T10:43:10.877Z,993.78
2017-10-07T10:44:10.121Z,993.76
2017-10-07T10:45:10.168Z,993.74
2017-10-07T10:46:10.107Z,993.87
2017-10-07T10:47:10.955Z,993.74
2017-10-07T10:48:11.291Z,993.79
2017-10-07T10:49:10.835Z,993.67
2017-10-07T10:50:11.332Z,993.64
2017-10-07T10:51:11.603Z,993.73
2017-10-07T10:52:11.357Z,993.54
2017-10-07T10:53:11.413Z,993.61
2017-10-07T10:54:10.667Z,993.73
2017-10-07T10:55:11.441Z,993.61
2017-10-07T10:56:10.774Z,993.62
2017-10-07T10:57:10.833Z,993.59
2017-10-07T10:58:10.115Z,993.55
2017-10-07T10:59:11.027Z,993.67
2017-10-07T11:00:10.118Z,993.57
2017-10-07T11:01:10.240Z,993.58
2017-10-07T11:02:10.090Z,993.53
2017-10-07T11:03:11.284Z,993.53
2017-10-07T11:04:10.978Z,993.50
2017-10-07T11:05:10.803Z,993.45
2017-10-07T11:06:11.147Z,993.42
2017-10-07T11:07:10.984Z,993.38
2017-10-07T11:08:11.339Z,993.43
2017-10-07T11:09:11.217Z,993.40
2017-10-07T11:10:11.307Z,993.46
2017-10-07T11:11:11.560Z,993.36
2017-10-07T11:12:10.922Z,993.28
2017-10-07T11:13:11.691Z,993.31
2017-10-07T11:14:10.951Z,993.30
2017-10-07T11:15:11.011Z,993.30
2017-10-07T11:16:10.253Z,993.46
2017-10-07T11:17:10.300Z,993.34
2017-10-07T11:18:10.158Z,993.34
2017-10-07T11:19:10.299Z,993.31
2017-10-07T11:20:10.168Z,993.27
2017-10-07T11:21:11.025Z,993.23
2017-10-07T11:22:11.283Z,993.32
2017-10-07T11:23:11.589Z,993.20
2017-10-07T11:24:11.048Z,993.19
2017-10-07T11:25:11.607Z,993.13
2017-10-07T11:26:11.605Z,993.13
2017-10-07T11:27:11.497Z,993.01
2017-10-07T11:28:11.310Z,992.90
2017-10-07T11:29:11.176Z,992.97
2017-10-07T11:30:10.827Z,992.87
2017-10-07T11:31:11.057Z,992.93
2017-10-07T11:32:10.252Z,992.84
2017-10-07T11:33:10.250Z,992.87
2017-10-07T11:34:10.234Z,992.82
2017-10-07T11:35:10.298Z,992.82
2017-10-07T11:36:10.294Z,992.79
2017-10-07T11:37:10.330Z,992.68
2017-10-07T11:38:10.200Z,992.74
2017-10-07T11:39:10.975Z,992.67
2017-10-07T11:40:11.502Z,992.85
2017-10-07T11:41:11.551Z,992.64
2017-10-07T11:42:11.507Z,992.82
2017-10-07T11:43:11.562Z,992.63
2017-10-07T11:44:10.786Z,992.66
2017-10-07T11:45:10.876Z,992.63
2017-10-07T11:46:11.005Z,992.60
2017-10-07T11:47:10.894Z,992.66
2017-10-07T11:48:10.926Z,992.61
2017-10-07T11:49:10.989Z,992.58
2017-10-07T11:50:10.265Z,992.69
2017-10-07T11:51:10.359Z,992.69
2017-10-07T11:52:10.318Z,992.55
2017-10-07T11:53:10.359Z,992.65
2017-10-07T11:54:10.300Z,992.70
2017-10-07T11:55:11.096Z,992.67
2017-10-07T11:56:11.546Z,992.70
2017-10-07T11:57:11.692Z,992.60
2017-10-07T11:58:11.542Z,992.62
2017-10-07T11:59:11.586Z,992.68
2017-10-07T12:00:11.536Z,992.61
2017-10-07T12:01:11.652Z,992.58
2017-10-07T12:02:10.945Z,992.35
2017-10-07T12:03:11.703Z,992.57
2017-10-07T12:04:10.981Z,992.35
2017-10-07T12:05:10.294Z,992.43
2017-10-07T12:06:10.395Z,992.51
2017-10-07T12:07:10.386Z,992.31
2017-10-07T12:08:13.868Z,992.36
2017-10-07T12:09:10.310Z,992.36
2017-10-07T12:10:11.023Z,992.40
2017-10-07T12:11:10.989Z,992.38
2017-10-07T12:12:11.033Z,992.36
2017-10-07T12:13:11.580Z,992.35
2017-10-07T12:14:11.603Z,992.24
2017-10-07T12:15:11.679Z,992.23
2017-10-07T12:16:11.949Z,992.19
2017-10-07T12:17:11.625Z,992.14
2017-10-07T12:18:11.696Z,992.13
2017-10-07T12:19:11.079Z,992.17
2017-10-07T12:20:10.950Z,992.21
2017-10-07T12:21:11.158Z,992.09
2017-10-07T12:22:10.412Z,992.08
2017-10-07T12:23:10.488Z,992.15
2017-10-07T12:24:10.468Z,992.14
2017-10-07T12:25:10.395Z,992.19
2017-10-07T12:26:10.403Z,992.18
2017-10-07T12:27:10.458Z,992.16